Terminal Aerodrome Forecast
Issued by NWS

Home | Current Version | Previous Version | Text Only | Print | Product List | Glossary On
Versions: 1 2 3 4 5 6 7 8 9 10 11 12 13 14 15 16 17 18 19 20 21 22
000
FTUS43 KLSX 262000 AAA
TAFSUS
TAF AMD
KSUS 262029Z 2620/2718 VRB05KT P6SM VCTS SCT050CB SCT250
     FM270100 00000KT P6SM SKC
     FM271500 VRB05KT P6SM SCT250=

USA.gov is the U.S. government's official web portal to all federal, state and local government web resources and services.